sensor_id;sensor_type;location;lat;lon;timestamp;temperature;humidity
10175;DHT22;18221;38.704;0.152;2022-12-07T00:20:35;13.40;99.90
10175;DHT22;18221;38.704;0.152;2022-12-07T00:23:03;13.30;99.90
10175;DHT22;18221;38.704;0.152;2022-12-07T00:25:31;13.40;99.90
10175;DHT22;18221;38.704;0.152;2022-12-07T00:27:59;13.40;99.90
10175;DHT22;18221;38.704;0.152;2022-12-07T00:30:27;13.70;99.90
10175;DHT22;18221;38.704;0.152;2022-12-07T00:32:54;13.30;99.90
10175;DHT22;18221;38.704;0.152;2022-12-07T00:35:22;13.30;99.90
10175;DHT22;18221;38.704;0.152;2022-12-07T00:37:51;13.30;99.90
10175;DHT22;18221;38.704;0.152;2022-12-07T00:40:19;13.30;99.90
10175;DHT22;18221;38.704;0.152;2022-12-07T00:42:47;13.40;99.90
10175;DHT22;18221;38.704;0.152;2022-12-07T00:45:15;13.30;99.90
10175;DHT22;18221;38.704;0.152;2022-12-07T00:47:43;13.30;99.90
10175;DHT22;18221;38.704;0.152;2022-12-07T00:50:11;13.40;99.90
10175;DHT22;18221;38.704;0.152;2022-12-07T00:52:39;13.40;99.90
10175;DHT22;18221;38.704;0.152;2022-12-07T00:55:08;13.40;99.90
10175;DHT22;18221;38.704;0.152;2022-12-07T00:57:36;13.40;99.90
10175;DHT22;18221;38.704;0.152;2022-12-07T01:00:05;13.50;99.90
10175;DHT22;18221;38.704;0.152;2022-12-07T01:02:34;13.50;99.90
10175;DHT22;18221;38.704;0.152;2022-12-07T01:05:02;13.50;99.90
10175;DHT22;18221;38.704;0.152;2022-12-07T01:07:29;13.50;99.90
10175;DHT22;18221;38.704;0.152;2022-12-07T01:09:57;13.50;99.90
10175;DHT22;18221;38.704;0.152;2022-12-07T01:12:26;13.50;99.90
10175;DHT22;18221;38.704;0.152;2022-12-07T01:14:54;13.40;99.90
10175;DHT22;18221;38.704;0.152;2022-12-07T01:17:22;13.50;99.90
10175;DHT22;18221;38.704;0.152;2022-12-07T01:19:50;13.40;99.90
10175;DHT22;18221;38.704;0.152;2022-12-07T01:22:18;13.50;99.90
10175;DHT22;18221;38.704;0.152;2022-12-07T01:24:46;13.50;99.90
10175;DHT22;18221;38.704;0.152;2022-12-07T01:27:14;13.40;99.90
10175;DHT22;18221;38.704;0.152;2022-12-07T01:29:43;13.50;99.90
10175;DHT22;18221;38.704;0.152;2022-12-07T01:32:11;13.50;99.90
10175;DHT22;18221;38.704;0.152;2022-12-07T01:34:39;13.50;99.90
10175;DHT22;18221;38.704;0.152;2022-12-07T01:37:06;13.50;99.90
10175;DHT22;18221;38.704;0.152;2022-12-07T01:39:34;13.50;99.90
10175;DHT22;18221;38.704;0.152;2022-12-07T01:42:02;13.50;99.90
10175;DHT22;18221;38.704;0.152;2022-12-07T01:44:30;13.50;99.90
10175;DHT22;18221;38.704;0.152;2022-12-07T01:47:01;13.50;99.90
10175;DHT22;18221;38.704;0.152;2022-12-07T01:49:37;13.50;99.90
10175;DHT22;18221;38.704;0.152;2022-12-07T01:52:14;13.60;99.90
10175;DHT22;18221;38.704;0.152;2022-12-07T01:54:48;13.60;99.90
10175;DHT22;18221;38.704;0.152;2022-12-07T01:57:19;13.60;99.90
10175;DHT22;18221;38.704;0.152;2022-12-07T01:59:50;13.50;99.90
10175;DHT22;18221;38.704;0.152;2022-12-07T02:02:24;13.50;99.90
10175;DHT22;18221;38.704;0.152;2022-12-07T02:04:56;13.50;99.90
10175;DHT22;18221;38.704;0.152;2022-12-07T02:07:27;13.50;99.90
10175;DHT22;18221;38.704;0.152;2022-12-07T02:09:56;13.50;99.90
10175;DHT22;18221;38.704;0.152;2022-12-07T02:12:25;13.50;99.90
10175;DHT22;18221;38.704;0.152;2022-12-07T02:14:53;13.50;99.90
10175;DHT22;18221;38.704;0.152;2022-12-07T02:17:28;13.50;99.90
10175;DHT22;18221;38.704;0.152;2022-12-07T02:20:21;13.50;99.90
10175;DHT22;18221;38.704;0.152;2022-12-07T02:23:20;13.40;99.90
10175;DHT22;18221;38.704;0.152;2022-12-07T02:26:43;13.40;99.90
10175;DHT22;18221;38.704;0.152;2022-12-07T02:29:32;13.50;99.90
10175;DHT22;18221;38.704;0.152;2022-12-07T02:32:08;13.40;99.90
10175;DHT22;18221;38.704;0.152;2022-12-07T02:34:47;13.40;99.90
10175;DHT22;18221;38.704;0.152;2022-12-07T02:37:29;13.40;99.90
10175;DHT22;18221;38.704;0.152;2022-12-07T02:40:09;13.40;99.90
10175;DHT22;18221;38.704;0.152;2022-12-07T02:42:45;13.40;99.90
10175;DHT22;18221;38.704;0.152;2022-12-07T02:45:20;13.40;99.90
10175;DHT22;18221;38.704;0.152;2022-12-07T02:47:51;13.40;99.90
10175;DHT22;18221;38.704;0.152;2022-12-07T02:50:24;13.40;99.90
10175;DHT22;18221;38.704;0.152;2022-12-07T02:52:53;13.40;99.90
10175;DHT22;18221;38.704;0.152;2022-12-07T02:55:25;13.40;99.90
10175;DHT22;18221;38.704;0.152;2022-12-07T02:58:22;13.40;99.90
10175;DHT22;18221;38.704;0.152;2022-12-07T03:01:08;13.30;99.90
10175;DHT22;18221;38.704;0.152;2022-12-07T03:03:48;13.40;99.90
10175;DHT22;18221;38.704;0.152;2022-12-07T03:06:29;13.40;99.90
10175;DHT22;18221;38.704;0.152;2022-12-07T03:09:11;13.40;99.90
10175;DHT22;18221;38.704;0.152;2022-12-07T03:11:46;13.30;99.90
10175;DHT22;18221;38.704;0.152;2022-12-07T03:14:20;13.40;99.90
10175;DHT22;18221;38.704;0.152;2022-12-07T03:16:57;13.40;99.90
10175;DHT22;18221;38.704;0.152;2022-12-07T03:19:31;13.50;99.90
10175;DHT22;18221;38.704;0.152;2022-12-07T03:22:04;13.50;99.90
10175;DHT22;18221;38.704;0.152;2022-12-07T03:24:39;13.50;99.90
10175;DHT22;18221;38.704;0.152;2022-12-07T03:27:14;13.50;99.90
10175;DHT22;18221;38.704;0.152;2022-12-07T03:29:50;13.50;99.90
10175;DHT22;18221;38.704;0.152;2022-12-07T03:32:28;13.50;99.90
10175;DHT22;18221;38.704;0.152;2022-12-07T03:35:03;13.50;99.90
10175;DHT22;18221;38.704;0.152;2022-12-07T03:37:39;13.50;99.90
10175;DHT22;18221;38.704;0.152;2022-12-07T03:40:16;13.40;99.90
10175;DHT22;18221;38.704;0.152;2022-12-07T03:42:50;13.40;99.90
10175;DHT22;18221;38.704;0.152;2022-12-07T03:45:24;13.40;99.90
10175;DHT22;18221;38.704;0.152;2022-12-07T03:48:07;13.40;99.90
10175;DHT22;18221;38.704;0.152;2022-12-07T03:50:46;13.40;99.90
10175;DHT22;18221;38.704;0.152;2022-12-07T03:53:24;13.40;99.90
10175;DHT22;18221;38.704;0.152;2022-12-07T03:55:57;13.30;99.90
10175;DHT22;18221;38.704;0.152;2022-12-07T03:58:26;13.30;99.90
10175;DHT22;18221;38.704;0.152;2022-12-07T04:00:55;13.30;99.90
10175;DHT22;18221;38.704;0.152;2022-12-07T04:03:24;13.30;99.90
10175;DHT22;18221;38.704;0.152;2022-12-07T04:05:53;13.30;99.90
10175;DHT22;18221;38.704;0.152;2022-12-07T04:08:21;13.40;99.90
10175;DHT22;18221;38.704;0.152;2022-12-07T04:10:49;13.30;99.90
10175;DHT22;18221;38.704;0.152;2022-12-07T04:13:17;13.30;99.90
10175;DHT22;18221;38.704;0.152;2022-12-07T04:15:45;13.40;99.90
10175;DHT22;18221;38.704;0.152;2022-12-07T04:18:13;13.40;99.90
10175;DHT22;18221;38.704;0.152;2022-12-07T04:20:42;13.60;99.90
10175;DHT22;18221;38.704;0.152;2022-12-07T04:23:10;13.30;99.90
10175;DHT22;18221;38.704;0.152;2022-12-07T04:25:38;13.40;99.90
10175;DHT22;18221;38.704;0.152;2022-12-07T04:28:06;13.40;99.90
10175;DHT22;18221;38.704;0.152;2022-12-07T04:30:33;13.40;99.90
10175;DHT22;18221;38.704;0.152;2022-12-07T04:33:01;13.40;99.90
10175;DHT22;18221;38.704;0.152;2022-12-07T04:35:29;13.40;99.90
10175;DHT22;18221;38.704;0.152;2022-12-07T04:37:58;13.40;99.90
10175;DHT22;18221;38.704;0.152;2022-12-07T04:40:26;13.30;99.90
10175;DHT22;18221;38.704;0.152;2022-12-07T04:42:54;13.30;99.90
10175;DHT22;18221;38.704;0.152;2022-12-07T04:45:22;13.40;99.90
10175;DHT22;18221;38.704;0.152;2022-12-07T04:47:50;13.40;99.90
10175;DHT22;18221;38.704;0.152;2022-12-07T04:50:18;13.40;99.90
10175;DHT22;18221;38.704;0.152;2022-12-07T04:52:45;13.40;99.90
10175;DHT22;18221;38.704;0.152;2022-12-07T04:55:15;13.40;99.90
10175;DHT22;18221;38.704;0.152;2022-12-07T04:57:43;13.40;99.90
10175;DHT22;18221;38.704;0.152;2022-12-07T05:00:11;13.40;99.90
10175;DHT22;18221;38.704;0.152;2022-12-07T05:02:40;13.40;99.90
10175;DHT22;18221;38.704;0.152;2022-12-07T05:05:08;13.40;99.90
10175;DHT22;18221;38.704;0.152;2022-12-07T05:07:35;13.30;99.90
10175;DHT22;18221;38.704;0.152;2022-12-07T05:10:04;13.40;99.90
10175;DHT22;18221;38.704;0.152;2022-12-07T05:12:34;13.40;99.90
10175;DHT22;18221;38.704;0.152;2022-12-07T05:15:03;13.40;99.90
10175;DHT22;18221;38.704;0.152;2022-12-07T05:17:31;13.30;99.90
10175;DHT22;18221;38.704;0.152;2022-12-07T05:19:59;13.30;99.90
10175;DHT22;18221;38.704;0.152;2022-12-07T05:22:27;13.40;99.90
10175;DHT22;18221;38.704;0.152;2022-12-07T05:24:55;13.30;99.90
10175;DHT22;18221;38.704;0.152;2022-12-07T05:27:23;13.40;99.90
10175;DHT22;18221;38.704;0.152;2022-12-07T05:29:52;13.30;99.90
10175;DHT22;18221;38.704;0.152;2022-12-07T05:32:20;13.30;99.90
10175;DHT22;18221;38.704;0.152;2022-12-07T05:34:48;13.40;99.90
10175;DHT22;18221;38.704;0.152;2022-12-07T05:37:16;13.30;99.90
10175;DHT22;18221;38.704;0.152;2022-12-07T05:39:43;13.40;99.90
10175;DHT22;18221;38.704;0.152;2022-12-07T05:42:11;13.40;99.90
10175;DHT22;18221;38.704;0.152;2022-12-07T05:44:40;13.30;99.90
10175;DHT22;18221;38.704;0.152;2022-12-07T05:47:10;13.40;99.90
10175;DHT22;18221;38.704;0.152;2022-12-07T05:49:38;13.40;99.90
10175;DHT22;18221;38.704;0.152;2022-12-07T05:52:06;13.40;99.90
10175;DHT22;18221;38.704;0.152;2022-12-07T05:54:35;13.40;99.90
10175;DHT22;18221;38.704;0.152;2022-12-07T05:57:02;13.40;99.90
10175;DHT22;18221;38.704;0.152;2022-12-07T05:59:30;13.40;99.90
10175;DHT22;18221;38.704;0.152;2022-12-07T06:01:58;13.40;99.90
10175;DHT22;18221;38.704;0.152;2022-12-07T06:04:30;13.40;99.90
10175;DHT22;18221;38.704;0.152;2022-12-07T06:07:00;13.40;99.90
10175;DHT22;18221;38.704;0.152;2022-12-07T06:09:28;13.40;99.90
10175;DHT22;18221;38.704;0.152;2022-12-07T06:11:57;13.40;99.90
10175;DHT22;18221;38.704;0.152;2022-12-07T06:14:43;13.40;99.90
10175;DHT22;18221;38.704;0.152;2022-12-07T06:17:12;13.40;99.90
10175;DHT22;18221;38.704;0.152;2022-12-07T06:19:41;13.40;99.90
10175;DHT22;18221;38.704;0.152;2022-12-07T06:22:10;13.40;99.90
10175;DHT22;18221;38.704;0.152;2022-12-07T06:24:38;13.40;99.90
10175;DHT22;18221;38.704;0.152;2022-12-07T06:27:07;13.40;99.90
10175;DHT22;18221;38.704;0.152;2022-12-07T06:29:36;13.40;99.90
10175;DHT22;18221;38.704;0.152;2022-12-07T06:32:04;13.30;99.90
10175;DHT22;18221;38.704;0.152;2022-12-07T06:34:32;13.40;99.90
10175;DHT22;18221;38.704;0.152;2022-12-07T06:37:01;13.30;99.90
10175;DHT22;18221;38.704;0.152;2022-12-07T06:39:29;13.30;99.90
10175;DHT22;18221;38.704;0.152;2022-12-07T06:41:57;13.40;99.90
10175;DHT22;18221;38.704;0.152;2022-12-07T06:44:26;13.40;99.90
10175;DHT22;18221;38.704;0.152;2022-12-07T06:46:55;13.30;99.90
10175;DHT22;18221;38.704;0.152;2022-12-07T06:49:23;13.30;99.90
10175;DHT22;18221;38.704;0.152;2022-12-07T06:51:51;13.30;99.90
10175;DHT22;18221;38.704;0.152;2022-12-07T06:54:21;13.30;99.90
10175;DHT22;18221;38.704;0.152;2022-12-07T06:56:49;13.20;99.90
10175;DHT22;18221;38.704;0.152;2022-12-07T06:59:16;13.20;99.90
10175;DHT22;18221;38.704;0.152;2022-12-07T07:01:44;13.20;99.90
10175;DHT22;18221;38.704;0.152;2022-12-07T07:04:12;13.10;99.90
10175;DHT22;18221;38.704;0.152;2022-12-07T07:06:40;13.20;99.90
10175;DHT22;18221;38.704;0.152;2022-12-07T07:09:08;13.20;99.90
10175;DHT22;18221;38.704;0.152;2022-12-07T07:11:37;13.10;99.90
10175;DHT22;18221;38.704;0.152;2022-12-07T07:14:05;13.20;99.90
10175;DHT22;18221;38.704;0.152;2022-12-07T07:16:33;13.10;99.90
10175;DHT22;18221;38.704;0.152;2022-12-07T07:19:01;13.10;99.90
10175;DHT22;18221;38.704;0.152;2022-12-07T07:21:28;13.10;99.90
10175;DHT22;18221;38.704;0.152;2022-12-07T07:23:56;13.10;99.90
10175;DHT22;18221;38.704;0.152;2022-12-07T07:26:24;13.10;99.90
10175;DHT22;18221;38.704;0.152;2022-12-07T07:28:53;13.10;99.90
10175;DHT22;18221;38.704;0.152;2022-12-07T07:31:21;13.10;99.90
10175;DHT22;18221;38.704;0.152;2022-12-07T07:33:49;13.10;99.90
10175;DHT22;18221;38.704;0.152;2022-12-07T07:36:17;13.10;99.90
10175;DHT22;18221;38.704;0.152;2022-12-07T07:38:45;13.10;99.90
10175;DHT22;18221;38.704;0.152;2022-12-07T07:41:13;13.10;99.90
10175;DHT22;18221;38.704;0.152;2022-12-07T07:43:40;13.10;99.90
10175;DHT22;18221;38.704;0.152;2022-12-07T07:46:10;13.20;99.90
10175;DHT22;18221;38.704;0.152;2022-12-07T07:48:38;13.20;99.90
10175;DHT22;18221;38.704;0.152;2022-12-07T07:51:06;13.20;99.90
10175;DHT22;18221;38.704;0.152;2022-12-07T07:53:35;13.30;99.90
10175;DHT22;18221;38.704;0.152;2022-12-07T07:56:03;13.40;99.90
10175;DHT22;18221;38.704;0.152;2022-12-07T07:58:34;13.40;99.90
10175;DHT22;18221;38.704;0.152;2022-12-07T08:01:06;13.40;99.90
10175;DHT22;18221;38.704;0.152;2022-12-07T08:03:36;13.40;99.90
10175;DHT22;18221;38.704;0.152;2022-12-07T08:06:04;13.50;99.90
10175;DHT22;18221;38.704;0.152;2022-12-07T08:08:32;13.50;99.90
10175;DHT22;18221;38.704;0.152;2022-12-07T08:11:00;13.50;99.90
10175;DHT22;18221;38.704;0.152;2022-12-07T08:13:28;13.50;99.90
10175;DHT22;18221;38.704;0.152;2022-12-07T08:15:56;13.60;99.90
10175;DHT22;18221;38.704;0.152;2022-12-07T08:18:24;13.60;99.90
10175;DHT22;18221;38.704;0.152;2022-12-07T08:20:58;13.70;99.90
10175;DHT22;18221;38.704;0.152;2022-12-07T08:23:27;13.70;99.90
10175;DHT22;18221;38.704;0.152;2022-12-07T08:26:00;13.70;99.90
10175;DHT22;18221;38.704;0.152;2022-12-07T08:28:28;13.70;99.90
10175;DHT22;18221;38.704;0.152;2022-12-07T08:30:59;13.70;99.90
10175;DHT22;18221;38.704;0.152;2022-12-07T08:33:27;13.80;99.90
10175;DHT22;18221;38.704;0.152;2022-12-07T08:36:00;13.80;99.90
10175;DHT22;18221;38.704;0.152;2022-12-07T08:38:28;13.80;99.90
10175;DHT22;18221;38.704;0.152;2022-12-07T08:40:57;13.80;99.90
10175;DHT22;18221;38.704;0.152;2022-12-07T08:43:26;13.90;99.90
10175;DHT22;18221;38.704;0.152;2022-12-07T08:46:02;14.00;99.90
10175;DHT22;18221;38.704;0.152;2022-12-07T08:48:37;14.10;99.90
10175;DHT22;18221;38.704;0.152;2022-12-07T08:51:10;14.20;99.90
10175;DHT22;18221;38.704;0.152;2022-12-07T08:53:39;14.30;99.90
10175;DHT22;18221;38.704;0.152;2022-12-07T08:56:08;14.40;99.90
10175;DHT22;18221;38.704;0.152;2022-12-07T08:58:37;14.50;99.90
10175;DHT22;18221;38.704;0.152;2022-12-07T09:01:06;14.50;99.90
10175;DHT22;18221;38.704;0.152;2022-12-07T09:03:34;14.50;99.90
10175;DHT22;18221;38.704;0.152;2022-12-07T09:06:02;14.40;99.90
10175;DHT22;18221;38.704;0.152;2022-12-07T09:08:34;14.40;99.90
10175;DHT22;18221;38.704;0.152;2022-12-07T09:11:06;14.50;99.90
10175;DHT22;18221;38.704;0.152;2022-12-07T09:13:34;14.40;99.90
10175;DHT22;18221;38.704;0.152;2022-12-07T09:16:02;14.40;99.90
10175;DHT22;18221;38.704;0.152;2022-12-07T09:18:30;14.80;99.90
10175;DHT22;18221;38.704;0.152;2022-12-07T09:20:58;14.90;99.90
10175;DHT22;18221;38.704;0.152;2022-12-07T09:23:26;14.70;99.90
10175;DHT22;18221;38.704;0.152;2022-12-07T09:25:59;14.80;99.90
10175;DHT22;18221;38.704;0.152;2022-12-07T09:28:27;14.90;99.90
10175;DHT22;18221;38.704;0.152;2022-12-07T09:30:55;14.90;99.90
10175;DHT22;18221;38.704;0.152;2022-12-07T09:33:23;15.00;99.90
10175;DHT22;18221;38.704;0.152;2022-12-07T09:35:51;15.10;99.90
10175;DHT22;18221;38.704;0.152;2022-12-07T09:38:20;15.00;99.90
10175;DHT22;18221;38.704;0.152;2022-12-07T09:40:50;15.10;99.90
10175;DHT22;18221;38.704;0.152;2022-12-07T09:43:21;15.10;99.90
10175;DHT22;18221;38.704;0.152;2022-12-07T09:45:52;15.10;99.90
10175;DHT22;18221;38.704;0.152;2022-12-07T09:48:24;15.20;99.90
10175;DHT22;18221;38.704;0.152;2022-12-07T09:50:59;15.20;99.90
10175;DHT22;18221;38.704;0.152;2022-12-07T09:53:31;15.10;99.90
10175;DHT22;18221;38.704;0.152;2022-12-07T09:56:02;15.00;99.90
10175;DHT22;18221;38.704;0.152;2022-12-07T09:58:32;14.90;99.90
10175;DHT22;18221;38.704;0.152;2022-12-07T10:01:08;14.80;99.90
10175;DHT22;18221;38.704;0.152;2022-12-07T10:03:42;14.80;99.90
10175;DHT22;18221;38.704;0.152;2022-12-07T10:06:15;14.70;99.90
10175;DHT22;18221;38.704;0.152;2022-12-07T10:08:43;14.70;99.90
10175;DHT22;18221;38.704;0.152;2022-12-07T10:11:12;14.70;99.90
10175;DHT22;18221;38.704;0.152;2022-12-07T10:13:45;14.70;99.90
10175;DHT22;18221;38.704;0.152;2022-12-07T10:16:40;14.80;99.90
10175;DHT22;18221;38.704;0.152;2022-12-07T10:19:21;14.80;99.90
10175;DHT22;18221;38.704;0.152;2022-12-07T10:22:03;14.90;99.90
10175;DHT22;18221;38.704;0.152;2022-12-07T10:24:37;15.00;99.90
10175;DHT22;18221;38.704;0.152;2022-12-07T10:27:18;15.00;99.90
10175;DHT22;18221;38.704;0.152;2022-12-07T10:29:50;14.90;99.90
10175;DHT22;18221;38.704;0.152;2022-12-07T10:32:31;14.90;99.90
10175;DHT22;18221;38.704;0.152;2022-12-07T10:35:23;14.90;99.90
10175;DHT22;18221;38.704;0.152;2022-12-07T10:37:54;14.90;99.90
10175;DHT22;18221;38.704;0.152;2022-12-07T10:40:29;14.80;99.90
10175;DHT22;18221;38.704;0.152;2022-12-07T10:43:17;14.80;99.90
10175;DHT22;18221;38.704;0.152;2022-12-07T10:46:17;14.80;99.90
10175;DHT22;18221;38.704;0.152;2022-12-07T10:49:07;14.80;99.90
10175;DHT22;18221;38.704;0.152;2022-12-07T10:51:56;14.80;99.90
10175;DHT22;18221;38.704;0.152;2022-12-07T10:54:39;14.80;99.90
10175;DHT22;18221;38.704;0.152;2022-12-07T10:57:26;14.80;99.90
10175;DHT22;18221;38.704;0.152;2022-12-07T11:00:11;14.80;99.90
10175;DHT22;18221;38.704;0.152;2022-12-07T11:06:10;15.00;99.90
10175;DHT22;18221;38.704;0.152;2022-12-07T11:08:59;15.00;99.90
10175;DHT22;18221;38.704;0.152;2022-12-07T11:11:36;15.10;99.90
10175;DHT22;18221;38.704;0.152;2022-12-07T11:14:18;15.50;99.90
10175;DHT22;18221;38.704;0.152;2022-12-07T11:16:56;15.20;99.90
10175;DHT22;18221;38.704;0.152;2022-12-07T11:19:43;15.30;99.90
10175;DHT22;18221;38.704;0.152;2022-12-07T11:22:29;15.40;99.90
10175;DHT22;18221;38.704;0.152;2022-12-07T11:25:16;15.30;99.90
10175;DHT22;18221;38.704;0.152;2022-12-07T11:28:03;15.20;99.90
10175;DHT22;18221;38.704;0.152;2022-12-07T11:30:48;15.20;99.90
10175;DHT22;18221;38.704;0.152;2022-12-07T11:33:29;15.20;99.90
10175;DHT22;18221;38.704;0.152;2022-12-07T11:36:16;15.10;99.90
10175;DHT22;18221;38.704;0.152;2022-12-07T11:39:01;15.30;99.90
10175;DHT22;18221;38.704;0.152;2022-12-07T11:41:34;15.30;99.90
10175;DHT22;18221;38.704;0.152;2022-12-07T11:44:06;15.40;99.90
10175;DHT22;18221;38.704;0.152;2022-12-07T11:46:46;15.50;99.90
10175;DHT22;18221;38.704;0.152;2022-12-07T11:49:21;15.60;99.90
10175;DHT22;18221;38.704;0.152;2022-12-07T11:52:01;15.60;99.90
10175;DHT22;18221;38.704;0.152;2022-12-07T11:54:36;15.60;99.90
10175;DHT22;18221;38.704;0.152;2022-12-07T11:57:14;15.70;99.90
10175;DHT22;18221;38.704;0.152;2022-12-07T11:59:53;15.70;99.90
10175;DHT22;18221;38.704;0.152;2022-12-07T12:02:37;15.60;99.90
10175;DHT22;18221;38.704;0.152;2022-12-07T12:05:15;15.70;99.90
10175;DHT22;18221;38.704;0.152;2022-12-07T12:07:52;15.80;99.90
10175;DHT22;18221;38.704;0.152;2022-12-07T12:10:34;15.70;99.90
10175;DHT22;18221;38.704;0.152;2022-12-07T12:19:59;16.00;99.90
10175;DHT22;18221;38.704;0.152;2022-12-07T12:22:36;16.00;99.90
10175;DHT22;18221;38.704;0.152;2022-12-07T12:25:23;16.00;99.90
10175;DHT22;18221;38.704;0.152;2022-12-07T12:27:56;16.00;99.90
10175;DHT22;18221;38.704;0.152;2022-12-07T12:30:32;16.10;99.90
10175;DHT22;18221;38.704;0.152;2022-12-07T12:33:04;16.20;99.90
10175;DHT22;18221;38.704;0.152;2022-12-07T12:35:35;16.10;99.90
10175;DHT22;18221;38.704;0.152;2022-12-07T12:38:27;16.10;99.90
10175;DHT22;18221;38.704;0.152;2022-12-07T12:41:01;16.10;99.90
10175;DHT22;18221;38.704;0.152;2022-12-07T12:43:49;16.20;99.90
10175;DHT22;18221;38.704;0.152;2022-12-07T12:46:45;16.20;99.90
10175;DHT22;18221;38.704;0.152;2022-12-07T12:49:33;16.20;99.90
10175;DHT22;18221;38.704;0.152;2022-12-07T12:58:44;16.20;99.90
10175;DHT22;18221;38.704;0.152;2022-12-07T13:01:41;16.20;99.90
10175;DHT22;18221;38.704;0.152;2022-12-07T13:04:38;16.30;99.90
10175;DHT22;18221;38.704;0.152;2022-12-07T13:10:41;16.20;99.90
10175;DHT22;18221;38.704;0.152;2022-12-07T13:13:33;16.30;99.90
10175;DHT22;18221;38.704;0.152;2022-12-07T13:22:54;16.40;99.90
10175;DHT22;18221;38.704;0.152;2022-12-07T13:25:36;16.30;99.90
10175;DHT22;18221;38.704;0.152;2022-12-07T13:28:16;16.20;99.90
10175;DHT22;18221;38.704;0.152;2022-12-07T13:31:03;16.20;99.90
10175;DHT22;18221;38.704;0.152;2022-12-07T13:33:38;16.20;99.90
10175;DHT22;18221;38.704;0.152;2022-12-07T13:36:16;16.10;99.90
10175;DHT22;18221;38.704;0.152;2022-12-07T13:38:55;16.10;99.90
10175;DHT22;18221;38.704;0.152;2022-12-07T13:41:26;16.10;99.90
10175;DHT22;18221;38.704;0.152;2022-12-07T13:44:01;16.10;99.90
10175;DHT22;18221;38.704;0.152;2022-12-07T13:46:44;16.10;99.90
10175;DHT22;18221;38.704;0.152;2022-12-07T13:49:22;16.00;99.90
10175;DHT22;18221;38.704;0.152;2022-12-07T13:51:53;16.00;99.90
10175;DHT22;18221;38.704;0.152;2022-12-07T13:54:22;16.10;99.90
10175;DHT22;18221;38.704;0.152;2022-12-07T13:56:51;16.00;99.90
10175;DHT22;18221;38.704;0.152;2022-12-07T13:59:21;16.10;99.90
10175;DHT22;18221;38.704;0.152;2022-12-07T14:01:54;16.10;99.90
10175;DHT22;18221;38.704;0.152;2022-12-07T14:04:39;16.10;99.90
10175;DHT22;18221;38.704;0.152;2022-12-07T14:07:28;16.10;99.90
10175;DHT22;18221;38.704;0.152;2022-12-07T14:09:58;16.10;99.90
10175;DHT22;18221;38.704;0.152;2022-12-07T14:12:29;16.20;99.90
